Bestevaer 2 — PG2801 — position and weather

sailwx.info

Track history (hours):
 
Tides and Currents Weather Stations Pressure Air Temp Water Temp Dewpoint Dewpoint Depression Visibility Wind Speed Wind Dir Waves Ship Positions

Bestevaer 2

Last reported at 2017-Jun-07 06:12 UTC. Time now 2017-Jun-22 14:21 UTC.
Position N 43°34' W 005°40'.
Warning: this ship's position is 15 days out of date.

Length 16 m.

Type: Sailing vessel. MMSI: 244030672.

Date/timePositionNaut miles runAvg speedWind from/ knotsBaromVisibWave heightAir tempDewpointWater temp
2017-Jun-07 06:12N 43°34' W 005°40'2 5.8
2017-Jun-07 05:56N 43°33' W 005°41'0 0.1
2017-Jun-07 05:26N 43°33' W 005°41'0 0.0
2017-Jun-07 04:56N 43°33' W 005°41'0 0.0
2017-Jun-07 04:30N 43°33' W 005°41'0 0.0
2017-Jun-07 04:00N 43°33' W 005°41'0 0.0
2017-Jun-07 03:30N 43°33' W 005°41'0 0.0
2017-Jun-07 02:42N 43°33' W 005°41'0 0.0
2017-Jun-07 02:06N 43°33' W 005°41'0 0.0
2017-Jun-07 01:48N 43°33' W 005°41'0 0.0
2017-Jun-07 01:24N 43°33' W 005°41'0 0.0
2017-Jun-07 00:48N 43°33' W 005°41'0 0.0
2017-Jun-07 00:30N 43°33' W 005°41'0 0.0
2017-Jun-07 00:00N 43°33' W 005°41'0 0.0
2017-Jun-06 23:24N 43°33' W 005°41'0 0.0
2017-Jun-06 19:36N 43°33' W 005°41'0 0.0
2017-Jun-06 18:24N 43°33' W 005°41'0 0.0
2017-Jun-06 10:52N 43°33' W 005°41'2 5.5
2017-Jun-06 10:29N 43°35' W 005°40'1 0.4
2017-Jun-06 07:39N 43°36' W 005°40'3 3.5
2017-Jun-06 06:47N 43°33' W 005°41'0 0.0
2017-Jun-06 06:17N 43°33' W 005°41'0 0.0
2017-Jun-06 05:36N 43°33' W 005°41'0 0.0
2017-Jun-06 03:06N 43°33' W 005°41'0 0.0
2017-Jun-06 02:42N 43°33' W 005°41'0 0.0
2017-Jun-06 02:30N 43°33' W 005°41'0 0.0
2017-Jun-05 15:47N 43°33' W 005°41'0 0.0
2017-Jun-05 08:51N 43°33' W 005°41'0 0.0
2017-Jun-05 08:24N 43°33' W 005°41'0 0.0
2017-Jun-05 07:03N 43°33' W 005°41'0 0.0
2017-Jun-05 06:51N 43°33' W 005°41'0 0.0
2017-Jun-05 06:27N 43°33' W 005°41'0 0.0
2017-Jun-05 05:15N 43°33' W 005°41'0 0.0
2017-Jun-05 04:57N 43°33' W 005°41'0 0.0
2017-Jun-05 04:21N 43°33' W 005°41'0 0.0
2017-Jun-05 03:51N 43°33' W 005°41'0 0.0
2017-Jun-05 02:45N 43°33' W 005°41'0 0.0
2017-Jun-05 01:39N 43°33' W 005°41'0 0.0
2017-Jun-05 01:27N 43°33' W 005°41'0 0.0
2017-Jun-04 19:57N 43°33' W 005°41'0 0.0
2017-Jun-04 18:45N 43°33' W 005°41'0 0.0
2017-Jun-04 18:21N 43°33' W 005°41'0 0.0
2017-Jun-04 11:09N 43°33' W 005°41'0 0.0
2017-Jun-04 08:09N 43°33' W 005°41'0 0.0
2017-Jun-04 07:57N 43°33' W 005°41'0 0.0
2017-Jun-04 07:03N 43°33' W 005°41'0 0.0
2017-Jun-04 06:57N 43°33' W 005°41'0 0.0
2017-Jun-04 06:27N 43°33' W 005°41'0 0.0
2017-Jun-04 05:33N 43°33' W 005°41'0 0.0
2017-Jun-04 05:27N 43°33' W 005°41'0 0.0
2017-Jun-04 04:51N 43°33' W 005°41'1 2.4
2017-Jun-04 04:24N 43°34' W 005°40'3 5.0
2017-Jun-04 03:49N 43°37' W 005°40'2 5.3
2017-Jun-04 03:28N 43°39' W 005°40'261 6.1
2017-Jun-02 08:53N 47°59' W 005°16'5 4.9
2017-Jun-02 07:53N 48°04' W 005°15'5 4.3
2017-Jun-02 06:48N 48°09' W 005°15'4 4.8
2017-Jun-02 05:58N 48°13' W 005°15'6 5.1
2017-Jun-02 04:53N 48°19' W 005°14'6 6.1
2017-Jun-02 03:58N 48°24' W 005°14'7 6.8
2017-Jun-02 02:59N 48°30' W 005°10'3 7.0
2017-Jun-02 02:30N 48°32' W 005°05'3 6.8
2017-Jun-02 02:00N 48°34' W 005°01'3 6.8
2017-Jun-02 01:30N 48°36' W 004°57'3 6.5
2017-Jun-02 01:00N 48°38' W 004°53'3 5.9
2017-Jun-02 00:30N 48°39' W 004°49'3 5.5
2017-Jun-02 00:00N 48°41' W 004°45'3 5.0
2017-Jun-01 23:30N 48°42' W 004°42'2 4.7
2017-Jun-01 23:00N 48°42' W 004°39'2 4.5
2017-Jun-01 22:30N 48°43' W 004°35'2 4.0
2017-Jun-01 21:59N 48°44' W 004°33'2 3.7
2017-Jun-01 21:29N 48°44' W 004°30'2 4.0
2017-Jun-01 20:53N 48°45' W 004°26'6 5.5
2017-Jun-01 19:48N 48°46' W 004°17'  
Track history (hours):
 
Tides and Currents Weather Stations Pressure Air Temp Water Temp Dewpoint Dewpoint Depression Visibility Wind Speed Wind Dir Waves Ship Positions

Bestevaer 2

Last reported at 2017-Jun-07 06:12 UTC. Time now 2017-Jun-22 14:21 UTC.
Position N 43°34' W 005°40'.
Warning: this ship's position is 15 days out of date.

Length 16 m.

Type: Sailing vessel. MMSI: 244030672.

Date/timePositionNaut miles runAvg speedWind from/ knotsBaromVisibWave heightAir tempDewpointWater temp
2017-Jun-07 06:12N 43°34' W 005°40'2 5.8
2017-Jun-07 05:56N 43°33' W 005°41'0 0.1
2017-Jun-07 05:26N 43°33' W 005°41'0 0.0
2017-Jun-07 04:56N 43°33' W 005°41'0 0.0
2017-Jun-07 04:30N 43°33' W 005°41'0 0.0
2017-Jun-07 04:00N 43°33' W 005°41'0 0.0
2017-Jun-07 03:30N 43°33' W 005°41'0 0.0
2017-Jun-07 02:42N 43°33' W 005°41'0 0.0
2017-Jun-07 02:06N 43°33' W 005°41'0 0.0
2017-Jun-07 01:48N 43°33' W 005°41'0 0.0
2017-Jun-07 01:24N 43°33' W 005°41'0 0.0
2017-Jun-07 00:48N 43°33' W 005°41'0 0.0
2017-Jun-07 00:30N 43°33' W 005°41'0 0.0
2017-Jun-07 00:00N 43°33' W 005°41'0 0.0
2017-Jun-06 23:24N 43°33' W 005°41'0 0.0
2017-Jun-06 19:36N 43°33' W 005°41'0 0.0
2017-Jun-06 18:24N 43°33' W 005°41'0 0.0
2017-Jun-06 10:52N 43°33' W 005°41'2 5.5
2017-Jun-06 10:29N 43°35' W 005°40'1 0.4
2017-Jun-06 07:39N 43°36' W 005°40'3 3.5
2017-Jun-06 06:47N 43°33' W 005°41'0 0.0
2017-Jun-06 06:17N 43°33' W 005°41'0 0.0
2017-Jun-06 05:36N 43°33' W 005°41'0 0.0
2017-Jun-06 03:06N 43°33' W 005°41'0 0.0
2017-Jun-06 02:42N 43°33' W 005°41'0 0.0
2017-Jun-06 02:30N 43°33' W 005°41'0 0.0
2017-Jun-05 15:47N 43°33' W 005°41'0 0.0
2017-Jun-05 08:51N 43°33' W 005°41'0 0.0
2017-Jun-05 08:24N 43°33' W 005°41'0 0.0
2017-Jun-05 07:03N 43°33' W 005°41'0 0.0
2017-Jun-05 06:51N 43°33' W 005°41'0 0.0
2017-Jun-05 06:27N 43°33' W 005°41'0 0.0
2017-Jun-05 05:15N 43°33' W 005°41'0 0.0
2017-Jun-05 04:57N 43°33' W 005°41'0 0.0
2017-Jun-05 04:21N 43°33' W 005°41'0 0.0
2017-Jun-05 03:51N 43°33' W 005°41'0 0.0
2017-Jun-05 02:45N 43°33' W 005°41'0 0.0
2017-Jun-05 01:39N 43°33' W 005°41'0 0.0
2017-Jun-05 01:27N 43°33' W 005°41'0 0.0
2017-Jun-04 19:57N 43°33' W 005°41'0 0.0
2017-Jun-04 18:45N 43°33' W 005°41'0 0.0
2017-Jun-04 18:21N 43°33' W 005°41'0 0.0
2017-Jun-04 11:09N 43°33' W 005°41'0 0.0
2017-Jun-04 08:09N 43°33' W 005°41'0 0.0
2017-Jun-04 07:57N 43°33' W 005°41'0 0.0
2017-Jun-04 07:03N 43°33' W 005°41'0 0.0
2017-Jun-04 06:57N 43°33' W 005°41'0 0.0
2017-Jun-04 06:27N 43°33' W 005°41'0 0.0
2017-Jun-04 05:33N 43°33' W 005°41'0 0.0
2017-Jun-04 05:27N 43°33' W 005°41'0 0.0
2017-Jun-04 04:51N 43°33' W 005°41'1 2.4
2017-Jun-04 04:24N 43°34' W 005°40'3 5.0
2017-Jun-04 03:49N 43°37' W 005°40'2 5.3
2017-Jun-04 03:28N 43°39' W 005°40'261 6.1
2017-Jun-02 08:53N 47°59' W 005°16'5 4.9
2017-Jun-02 07:53N 48°04' W 005°15'5 4.3
2017-Jun-02 06:48N 48°09' W 005°15'4 4.8
2017-Jun-02 05:58N 48°13' W 005°15'6 5.1
2017-Jun-02 04:53N 48°19' W 005°14'6 6.1
2017-Jun-02 03:58N 48°24' W 005°14'7 6.8
2017-Jun-02 02:59N 48°30' W 005°10'3 7.0
2017-Jun-02 02:30N 48°32' W 005°05'3 6.8
2017-Jun-02 02:00N 48°34' W 005°01'3 6.8
2017-Jun-02 01:30N 48°36' W 004°57'3 6.5
2017-Jun-02 01:00N 48°38' W 004°53'3 5.9
2017-Jun-02 00:30N 48°39' W 004°49'3 5.5
2017-Jun-02 00:00N 48°41' W 004°45'3 5.0
2017-Jun-01 23:30N 48°42' W 004°42'2 4.7
2017-Jun-01 23:00N 48°42' W 004°39'2 4.5
2017-Jun-01 22:30N 48°43' W 004°35'2 4.0
2017-Jun-01 21:59N 48°44' W 004°33'2 3.7
2017-Jun-01 21:29N 48°44' W 004°30'2 4.0
2017-Jun-01 20:53N 48°45' W 004°26'6 5.5
2017-Jun-01 19:48N 48°46' W 004°17'  

Dump ship's entire track history